East Lynn, WV (25512)

5:15 AM EDT on August 28, 2014 (GMT -0400)
Near Salt Rock Elementary School | Change Station
CLOSE
Current Station
Personal Weather Station
Location: Salt Rock, WV
Elevation: 627 ft
Nearby Weather Stations

Elev 627 ft 38.32 °N, 82.23 °W | Updated 12 minutes ago

Fog
Fog
69.1 °F
Feels Like 69.1 °F
N
0.0
Wind Variable Wind from NE
Gusts 3.0 mph

Today
High -- | Low -- °F
--% Chance of Precip.
Yesterday
High -- | Low -- °F
Precip. -- in
6:55 AM 8:04 PM
Waxing Crescent, 7% visible
Pressure 30.03 in
Visibility 3.0 miles
Clouds Overcast 200 ft
Dew Point 68 °F
Humidity 96%
Rainfall 0.00 in
Snow Depth Not available.
UV 0 out of 12
Pollen 10.00 out of 12
Air Quality Not available.
Flu Activity Not available.
SPECI KHTS 280906Z 04005KT 3SM BR OVC002 21/21 A3003 RMK AO2 T02110211

More Conditions Fewer Conditions

Pressure 30.03 in
Visibility 3.0 miles
Clouds Overcast 200 ft
Dew Point 68 °F
Humidity 96%
Rainfall 0.00 in
Snow Depth Not available.
UV 0 out of 12
Pollen 10.00 out of 12
Air Quality Not available.
Flu Activity Not available.
SPECI KHTS 280906Z 04005KT 3SM BR OVC002 21/21 A3003 RMK AO2 T02110211

More Conditions Fewer Conditions

10-Day Weather Forecast

Almanac

Astronomy

Aug. 28, 2014 Rise Set
Actual Time 6:55 AM EDT 8:04 PM EDT
Civil Twilight 6:28 AM EDT 8:32 PM EDT
Nautical Twilight 5:55 AM EDT 9:04 PM EDT
Astronomical Twilight 5:21 AM EDT 9:38 PM EDT
Moon 9:43 AM EDT 9:31 PM EDT
Length of Visible Light 14h 03m
Length of Day
13h 09m
Tomorrow will be 2m 21s shorter.
Waxing Crescent, 7% of the Moon is Illuminated
Today
Waxing Crescent
Sep 2
First Quarter
Sep 8
Full
Sep 15
Last Quarter
Sep 24
New

Today's Extremes

State Highs State Lows

Community

WunderPhotos

Upload Photos

1,747,918 photos uploaded!

Nearby

Snow Depth

Station Depth Elevation
No new snow has been reported.

Earthquake Activity

City Distance Mag. Time & Date
No recent earthquake activity has been reported nearby.
Minimum magnitude displayed is 2.5.

Coastal Water Temperatures

Place Temperature
No Stations Reporting

Nearby Weather Stations